Terminal Aerodrome Forecast
Issued by NWS Cleveland, OH

Home | Current Version | Previous Version | Graphics & Text | Print | Product List | Glossary On
Versions: 1 2 3 4 5 6 7 8 9 10 11 12 13 14 15 16 17 18 19 20 21 22 23 24 25 26
000
FTUS41 KCLE 141747
TAFCLE
TAF
KCLE 141747Z 1418/1524 27008KT P6SM BKN035
     FM142300 28007KT P6SM BKN250
     FM150600 22006KT P6SM OVC050
     FM151700 23013KT 6SM -SN OVC030
     FM151800 23015G25KT 1 1/2SM -SN BR OVC025
     FM152300 26015G25KT P6SM OVC025=

USA.gov is the U.S. government's official web portal to all federal, state and local government web resources and services.